createdAt,value
2023-03-08T00:00:14.575Z,5.90
2023-03-08T00:02:42.457Z,6.00
2023-03-08T00:05:11.373Z,5.80
2023-03-08T00:07:40.384Z,6.00
2023-03-08T00:10:09.277Z,5.80
2023-03-08T00:12:36.970Z,5.80
2023-03-08T00:15:05.092Z,5.80
2023-03-08T00:17:32.695Z,5.90
2023-03-08T00:20:00.358Z,5.80
2023-03-08T00:22:28.297Z,5.80
2023-03-08T00:24:57.606Z,5.90
2023-03-08T00:27:25.357Z,6.10
2023-03-08T00:29:55.514Z,5.90
2023-03-08T00:32:23.260Z,6.00
2023-03-08T00:34:52.463Z,6.10
2023-03-08T00:37:20.893Z,6.10
2023-03-08T00:39:52.296Z,5.90
2023-03-08T00:42:21.694Z,6.00
2023-03-08T00:44:49.410Z,6.00
2023-03-08T00:47:17.184Z,5.90
2023-03-08T00:49:45.269Z,5.90
2023-03-08T00:52:12.995Z,5.90
2023-03-08T00:54:40.800Z,5.70
2023-03-08T00:57:08.444Z,5.60
2023-03-08T00:59:37.555Z,5.60
2023-03-08T01:02:05.323Z,5.90
2023-03-08T01:04:34.119Z,5.90
2023-03-08T01:07:01.915Z,5.80
2023-03-08T01:09:29.674Z,5.70
2023-03-08T01:11:57.336Z,5.50
2023-03-08T01:14:24.998Z,5.60
2023-03-08T01:16:54.258Z,5.60
2023-03-08T01:19:21.901Z,5.80
2023-03-08T01:21:49.589Z,5.80
2023-03-08T01:24:17.272Z,5.60
2023-03-08T01:26:44.930Z,5.60
2023-03-08T01:29:12.617Z,5.70
2023-03-08T01:31:40.488Z,5.70
2023-03-08T01:34:10.858Z,5.60
2023-03-08T01:36:38.505Z,5.50
2023-03-08T01:39:06.202Z,5.70
2023-03-08T01:41:33.923Z,5.50
2023-03-08T01:44:01.846Z,5.60
2023-03-08T01:46:30.723Z,5.70
2023-03-08T01:49:04.278Z,5.70
2023-03-08T01:51:38.811Z,5.80
2023-03-08T01:54:10.646Z,5.80
2023-03-08T01:56:40.091Z,5.80
2023-03-08T01:59:08.594Z,5.70
2023-03-08T02:01:36.826Z,5.80
2023-03-08T02:04:08.318Z,5.90
2023-03-08T02:06:37.680Z,5.90
2023-03-08T02:09:05.753Z,5.80
2023-03-08T02:11:35.108Z,5.90
2023-03-08T02:14:03.229Z,5.80
2023-03-08T02:16:30.932Z,5.80
2023-03-08T02:19:01.294Z,5.70
2023-03-08T02:21:31.385Z,5.80
2023-03-08T02:24:07.193Z,5.90
2023-03-08T02:26:37.580Z,5.90
2023-03-08T02:29:05.245Z,5.90
2023-03-08T02:31:32.934Z,5.80
2023-03-08T02:34:00.655Z,5.90
2023-03-08T02:36:28.487Z,5.90
2023-03-08T02:38:56.172Z,5.80
2023-03-08T02:41:25.180Z,5.70
2023-03-08T02:43:52.866Z,5.80
2023-03-08T02:46:20.834Z,5.80
2023-03-08T02:48:49.102Z,5.80
2023-03-08T02:51:16.836Z,5.90
2023-03-08T02:53:44.519Z,6.00
2023-03-08T02:56:12.273Z,6.10
2023-03-08T02:58:41.265Z,6.10
2023-03-08T03:01:12.458Z,6.00
2023-03-08T03:03:40.211Z,6.10
2023-03-08T03:06:14.628Z,6.20
2023-03-08T03:08:42.430Z,6.10
2023-03-08T03:11:15.920Z,6.10
2023-03-08T03:13:45.451Z,6.10
2023-03-08T03:16:15.088Z,6.20
2023-03-08T03:18:43.452Z,6.20
2023-03-08T03:21:13.375Z,6.00
2023-03-08T03:23:41.608Z,5.90
2023-03-08T03:26:11.772Z,6.00
2023-03-08T03:28:39.546Z,6.00
2023-03-08T03:31:10.567Z,5.90
2023-03-08T03:33:38.606Z,6.00
2023-03-08T03:36:07.662Z,5.60
2023-03-08T03:38:35.469Z,5.70
2023-03-08T03:41:03.917Z,5.70
2023-03-08T03:43:32.064Z,5.60
2023-03-08T03:46:01.197Z,5.50
2023-03-08T03:48:30.626Z,5.60
2023-03-08T03:51:00.376Z,5.60
2023-03-08T03:53:30.911Z,5.60
2023-03-08T03:56:04.886Z,5.70
2023-03-08T03:58:32.650Z,5.70
2023-03-08T04:01:00.670Z,5.70
2023-03-08T04:03:29.789Z,5.30
2023-03-08T04:06:07.266Z,5.50
2023-03-08T04:08:35.000Z,5.50
2023-03-08T04:11:02.722Z,5.50
2023-03-08T04:13:30.497Z,5.70
2023-03-08T04:15:58.260Z,5.60
2023-03-08T04:18:26.041Z,5.60
2023-03-08T04:20:55.172Z,5.70
2023-03-08T04:23:23.155Z,5.60
2023-03-08T04:25:51.115Z,5.50
2023-03-08T04:28:21.369Z,5.50
2023-03-08T04:30:49.130Z,5.50
2023-03-08T04:33:16.995Z,5.50
2023-03-08T04:35:44.872Z,5.60
2023-03-08T04:38:14.073Z,5.60
2023-03-08T04:41:01.465Z,5.50
2023-03-08T04:43:29.530Z,5.30
2023-03-08T04:45:57.312Z,5.40
2023-03-08T04:48:26.521Z,5.40
2023-03-08T04:50:55.546Z,5.20
2023-03-08T04:53:25.763Z,5.20
2023-03-08T04:55:54.803Z,5.20
2023-03-08T04:58:23.384Z,5.20
2023-03-08T05:00:51.228Z,5.20
2023-03-08T05:03:19.013Z,4.90
2023-03-08T05:05:48.093Z,5.00
2023-03-08T05:08:15.967Z,5.20
2023-03-08T05:11:00.196Z,5.10
2023-03-08T05:13:30.061Z,5.10
2023-03-08T05:15:58.161Z,5.00
2023-03-08T05:18:26.243Z,5.00
2023-03-08T05:20:55.905Z,5.00
2023-03-08T05:23:24.482Z,4.90
2023-03-08T05:25:58.813Z,5.00
2023-03-08T05:28:28.735Z,5.00
2023-03-08T05:31:04.724Z,5.10
2023-03-08T05:33:33.289Z,5.00
2023-03-08T05:36:01.221Z,5.40
2023-03-08T05:38:43.063Z,5.30
2023-03-08T05:41:19.677Z,5.30
2023-03-08T05:43:52.678Z,5.30
2023-03-08T05:46:31.643Z,5.50
2023-03-08T05:48:59.760Z,5.60
2023-03-08T05:51:27.498Z,5.50
2023-03-08T05:53:55.589Z,5.50
2023-03-08T05:56:25.367Z,5.60
2023-03-08T05:58:56.446Z,5.70
2023-03-08T06:01:26.701Z,5.60
2023-03-08T06:03:56.423Z,5.10
2023-03-08T06:06:34.879Z,5.20
2023-03-08T06:09:04.347Z,5.30
2023-03-08T06:11:33.575Z,5.30
2023-03-08T06:14:01.366Z,5.30
2023-03-08T06:16:29.165Z,5.40
2023-03-08T06:18:57.213Z,5.40
2023-03-08T06:27:49.513Z,5.10
2023-03-08T06:30:29.148Z,5.00
2023-03-08T06:33:30.656Z,5.10
2023-03-08T06:36:18.676Z,4.80
2023-03-08T06:39:00.742Z,5.00
2023-03-08T06:41:38.976Z,5.00
2023-03-08T06:44:19.548Z,5.00
2023-03-08T06:47:06.797Z,5.10
2023-03-08T06:49:45.507Z,5.20
2023-03-08T06:52:21.552Z,5.10
2023-03-08T06:54:50.008Z,5.20
2023-03-08T06:57:25.365Z,5.30
2023-03-08T07:00:05.740Z,5.30
2023-03-08T07:02:55.244Z,5.40
2023-03-08T07:05:32.295Z,5.20
2023-03-08T07:08:08.339Z,5.30
2023-03-08T07:10:36.650Z,5.40
2023-03-08T07:13:13.910Z,5.30
2023-03-08T07:16:20.045Z,5.50
2023-03-08T07:18:57.048Z,5.30
2023-03-08T07:21:39.333Z,5.40
2023-03-08T07:24:28.428Z,5.50
2023-03-08T07:27:07.596Z,5.60
2023-03-08T07:29:38.719Z,5.70
2023-03-08T07:32:12.736Z,5.70
2023-03-08T07:34:54.804Z,5.80
2023-03-08T07:37:22.887Z,5.80
2023-03-08T07:43:04.163Z,6.10
2023-03-08T07:45:32.264Z,6.20
2023-03-08T07:48:01.641Z,6.20
2023-03-08T07:50:29.751Z,6.20
2023-03-08T07:52:57.684Z,6.10
2023-03-08T07:55:27.837Z,6.00
2023-03-08T07:57:55.798Z,6.00
2023-03-08T08:00:27.139Z,6.20
2023-03-08T08:02:55.645Z,6.20
2023-03-08T08:05:28.324Z,6.30
2023-03-08T08:07:56.261Z,6.30
2023-03-08T08:10:43.727Z,6.40
2023-03-08T08:13:13.037Z,6.50
2023-03-08T08:15:44.479Z,6.50
2023-03-08T08:18:14.398Z,6.60
2023-03-08T08:20:44.445Z,6.70
2023-03-08T08:23:12.239Z,6.80
2023-03-08T08:25:49.172Z,6.60
2023-03-08T08:28:44.171Z,6.60
2023-03-08T08:31:14.110Z,6.70
2023-03-08T08:33:42.039Z,6.60
2023-03-08T08:37:02.339Z,6.50
2023-03-08T08:39:33.687Z,6.60
2023-03-08T08:42:01.611Z,6.60
2023-03-08T08:44:29.451Z,6.60
2023-03-08T08:46:57.241Z,6.50
2023-03-08T08:49:25.020Z,6.50
2023-03-08T08:51:54.661Z,6.50
2023-03-08T08:54:22.381Z,6.50
2023-03-08T08:56:50.455Z,6.60
2023-03-08T08:59:18.497Z,6.50
2023-03-08T09:01:47.148Z,6.70
2023-03-08T09:04:16.946Z,6.30
2023-03-08T09:06:45.050Z,6.70
2023-03-08T09:09:14.504Z,6.80
2023-03-08T09:11:54.209Z,6.80
2023-03-08T09:14:27.664Z,6.60
2023-03-08T09:16:55.848Z,6.80
2023-03-08T09:19:23.878Z,6.90
2023-03-08T09:21:51.668Z,6.70
2023-03-08T09:24:22.237Z,6.80
2023-03-08T09:26:50.678Z,7.00
2023-03-08T09:29:18.735Z,7.00
2023-03-08T09:31:46.563Z,6.90
2023-03-08T09:34:15.507Z,6.90
2023-03-08T09:36:43.392Z,7.00
2023-03-08T09:39:13.106Z,7.10
2023-03-08T09:41:52.729Z,7.00
2023-03-08T09:45:08.181Z,7.10
2023-03-08T09:48:07.647Z,7.20
2023-03-08T09:50:51.225Z,7.00
2023-03-08T09:53:24.916Z,7.10
2023-03-08T09:55:57.269Z,7.10
2023-03-08T09:58:42.097Z,7.10
2023-03-08T10:01:32.320Z,6.90
2023-03-08T10:04:29.113Z,7.00
2023-03-08T10:07:34.972Z,7.20
2023-03-08T10:10:29.543Z,7.00
2023-03-08T10:13:28.162Z,7.30
2023-03-08T10:16:04.623Z,7.40
2023-03-08T10:18:49.747Z,7.40
2023-03-08T10:21:25.767Z,7.30
2023-03-08T10:24:01.624Z,7.30
2023-03-08T10:26:30.755Z,7.50
2023-03-08T10:28:59.214Z,7.50
2023-03-08T10:31:40.122Z,7.70
2023-03-08T10:34:14.879Z,7.30
2023-03-08T10:37:03.378Z,7.20
2023-03-08T10:39:31.628Z,7.20
2023-03-08T10:42:11.085Z,7.30
2023-03-08T10:44:45.760Z,7.40
2023-03-08T10:47:31.531Z,7.70
2023-03-08T10:50:33.304Z,7.80
2023-03-08T10:53:18.827Z,7.60
2023-03-08T10:55:48.733Z,7.70
2023-03-08T10:58:38.379Z,7.70
2023-03-08T11:01:08.703Z,7.80
2023-03-08T11:03:37.999Z,7.90
2023-03-08T11:06:39.109Z,8.00
2023-03-08T11:09:41.533Z,8.20
2023-03-08T11:12:47.821Z,8.00
2023-03-08T11:15:22.692Z,8.00
2023-03-08T11:19:24.946Z,8.00
2023-03-08T11:22:04.072Z,8.00
2023-03-08T11:24:50.156Z,8.00
2023-03-08T11:30:45.913Z,7.80
2023-03-08T11:33:43.755Z,8.00
2023-03-08T11:36:56.266Z,7.70
2023-03-08T11:39:39.952Z,7.90
2023-03-08T11:42:30.685Z,7.80
2023-03-08T11:45:53.685Z,7.80
2023-03-08T11:48:56.214Z,8.00
2023-03-08T11:51:40.082Z,7.90
2023-03-08T11:54:20.290Z,8.10
2023-03-08T11:56:59.042Z,8.20
2023-03-08T11:59:50.880Z,8.00
2023-03-08T12:02:27.841Z,8.10
2023-03-08T12:07:55.765Z,8.00
2023-03-08T12:10:26.080Z,7.90
2023-03-08T12:12:59.655Z,8.00
2023-03-08T12:15:34.245Z,8.00
2023-03-08T12:18:07.287Z,8.10
2023-03-08T12:20:38.649Z,7.90
2023-03-08T12:23:18.099Z,8.00
2023-03-08T12:25:49.578Z,7.90
2023-03-08T12:28:24.796Z,8.00
2023-03-08T12:31:04.024Z,7.80
2023-03-08T12:33:33.281Z,7.80
2023-03-08T12:36:03.532Z,7.60
2023-03-08T12:38:35.784Z,7.70
2023-03-08T12:41:04.932Z,7.60
2023-03-08T12:43:35.780Z,7.70
2023-03-08T12:46:07.771Z,7.60
2023-03-08T12:48:38.668Z,7.60
2023-03-08T12:51:18.240Z,7.30
2023-03-08T12:53:57.119Z,7.50
2023-03-08T12:56:29.824Z,7.50
2023-03-08T12:59:01.390Z,7.60
2023-03-08T13:01:35.540Z,7.40
2023-03-08T13:04:05.075Z,7.30
2023-03-08T13:07:12.464Z,7.50
2023-03-08T13:09:50.421Z,7.40
2023-03-08T13:12:31.053Z,7.50
2023-03-08T13:15:19.322Z,7.00
2023-03-08T13:17:51.456Z,7.30
2023-03-08T13:20:22.361Z,7.00
2023-03-08T13:23:01.202Z,7.10
2023-03-08T13:25:43.685Z,7.20
2023-03-08T13:28:14.189Z,7.20
2023-03-08T13:30:49.722Z,7.30
2023-03-08T13:33:22.142Z,7.40
2023-03-08T13:35:57.612Z,7.50
2023-03-08T13:38:28.676Z,7.50
2023-03-08T13:40:58.228Z,7.30
2023-03-08T13:43:28.237Z,7.40
2023-03-08T13:46:00.448Z,7.40
2023-03-08T13:48:31.055Z,7.40
2023-03-08T13:50:59.895Z,7.40
2023-03-08T13:53:30.619Z,7.40
2023-03-08T13:56:00.517Z,7.50
2023-03-08T13:58:33.845Z,7.50
2023-03-08T14:01:05.581Z,7.50
2023-03-08T14:03:34.146Z,7.30
2023-03-08T14:06:01.975Z,7.20
2023-03-08T14:08:29.936Z,7.20
2023-03-08T14:11:00.990Z,7.20
2023-03-08T14:13:33.203Z,7.00
2023-03-08T14:16:04.177Z,6.90
2023-03-08T14:18:38.810Z,6.80
2023-03-08T14:21:09.028Z,6.90
2023-03-08T14:23:41.775Z,6.80
2023-03-08T14:26:28.181Z,6.80
2023-03-08T14:29:17.650Z,6.70
2023-03-08T14:31:59.123Z,6.70
2023-03-08T14:34:29.002Z,6.70
2023-03-08T14:36:59.454Z,6.70
2023-03-08T14:39:29.571Z,6.70
2023-03-08T14:41:57.764Z,6.70
2023-03-08T14:44:28.689Z,6.70
2023-03-08T14:47:08.668Z,6.60
2023-03-08T14:49:36.355Z,6.50
2023-03-08T14:52:04.040Z,6.60
2023-03-08T14:54:34.086Z,6.60
2023-03-08T14:57:21.688Z,6.60
2023-03-08T14:59:50.710Z,6.70
2023-03-08T15:02:20.315Z,6.60
2023-03-08T15:04:48.196Z,6.60
2023-03-08T15:07:20.714Z,6.60
2023-03-08T15:09:50.047Z,6.50
2023-03-08T15:12:17.829Z,6.30
2023-03-08T15:14:46.209Z,6.50
2023-03-08T15:17:13.910Z,6.30
2023-03-08T15:19:43.071Z,6.40
2023-03-08T15:22:14.508Z,6.50
2023-03-08T15:24:42.271Z,6.60
2023-03-08T15:27:14.395Z,6.50
2023-03-08T15:29:42.070Z,6.50
2023-03-08T15:32:11.664Z,6.50
2023-03-08T15:34:40.960Z,6.20
2023-03-08T15:37:14.698Z,6.30
2023-03-08T15:39:42.678Z,6.30
2023-03-08T15:42:10.411Z,6.40
2023-03-08T15:44:38.101Z,6.40
2023-03-08T15:47:06.016Z,6.60
2023-03-08T15:49:33.779Z,6.50
2023-03-08T15:52:01.479Z,6.40
2023-03-08T15:54:31.760Z,6.50
2023-03-08T15:56:59.503Z,6.40
2023-03-08T15:59:27.160Z,6.50
2023-03-08T16:01:55.427Z,6.40
2023-03-08T16:04:23.123Z,6.40
2023-03-08T16:06:51.111Z,6.40
2023-03-08T16:09:18.770Z,6.20
2023-03-08T16:11:48.345Z,6.20
2023-03-08T16:14:17.828Z,6.20
2023-03-08T16:16:46.285Z,6.20
2023-03-08T16:19:14.319Z,6.30
2023-03-08T16:21:41.994Z,6.30
2023-03-08T16:24:09.764Z,6.30
2023-03-08T16:26:37.397Z,6.30
2023-03-08T16:29:06.435Z,6.20
2023-03-08T16:31:34.146Z,6.20
2023-03-08T16:34:03.532Z,6.20
2023-03-08T16:36:31.178Z,6.20
2023-03-08T16:38:58.905Z,6.20
2023-03-08T16:41:29.185Z,6.10
2023-03-08T16:43:58.092Z,6.10
2023-03-08T16:46:27.776Z,6.10
2023-03-08T16:48:56.700Z,6.00
2023-03-08T16:51:27.569Z,6.00
2023-03-08T16:53:56.172Z,6.00
2023-03-08T16:56:26.488Z,6.00
2023-03-08T16:58:55.891Z,6.10
2023-03-08T17:01:24.715Z,5.90
2023-03-08T17:03:54.414Z,6.00
2023-03-08T17:06:24.318Z,6.00
2023-03-08T17:08:52.806Z,5.90
2023-03-08T17:11:22.041Z,5.90
2023-03-08T17:13:51.230Z,5.90
2023-03-08T17:16:19.675Z,5.90
2023-03-08T17:18:47.606Z,6.00
2023-03-08T17:21:17.200Z,6.00
2023-03-08T17:23:45.300Z,6.10
2023-03-08T17:26:14.337Z,6.10
2023-03-08T17:28:42.069Z,6.00
2023-03-08T17:31:11.402Z,6.10
2023-03-08T17:33:39.504Z,6.00
2023-03-08T17:36:08.793Z,6.10
2023-03-08T17:38:38.230Z,6.10
2023-03-08T17:41:07.555Z,6.10
2023-03-08T17:43:35.939Z,6.00
2023-03-08T17:46:06.422Z,6.00
2023-03-08T17:48:35.177Z,6.10
2023-03-08T17:51:03.820Z,6.10
2023-03-08T17:53:31.854Z,6.10
2023-03-08T17:56:01.749Z,6.20
2023-03-08T17:58:29.811Z,6.10
2023-03-08T18:00:58.138Z,6.10
2023-03-08T18:03:25.877Z,6.00
2023-03-08T18:05:54.538Z,6.00
2023-03-08T18:08:22.205Z,5.90
2023-03-08T18:10:49.916Z,5.90
2023-03-08T18:13:18.911Z,5.90
2023-03-08T18:15:46.578Z,5.90
2023-03-08T18:18:14.278Z,5.90
2023-03-08T18:20:42.285Z,5.90
2023-03-08T18:23:10.359Z,5.90
2023-03-08T18:25:39.770Z,5.90
2023-03-08T18:28:07.935Z,6.00
2023-03-08T18:30:39.724Z,5.90
2023-03-08T18:33:21.047Z,5.70
2023-03-08T18:35:58.473Z,5.80
2023-03-08T18:38:26.704Z,5.70
2023-03-08T18:40:54.692Z,5.70
2023-03-08T18:43:22.346Z,5.80
2023-03-08T18:45:53.019Z,5.80
2023-03-08T18:48:21.815Z,5.70
2023-03-08T18:50:50.045Z,5.70
2023-03-08T18:53:18.021Z,5.60
2023-03-08T18:55:59.173Z,5.50
2023-03-08T18:58:35.900Z,5.60
2023-03-08T19:01:13.850Z,5.70
2023-03-08T19:03:43.017Z,5.70
2023-03-08T19:06:12.745Z,5.70
2023-03-08T19:08:41.323Z,5.80
2023-03-08T19:11:15.588Z,5.80
2023-03-08T19:13:44.204Z,5.50
2023-03-08T19:16:20.310Z,5.60
2023-03-08T19:18:51.382Z,5.60
2023-03-08T19:21:21.462Z,5.50
2023-03-08T19:23:50.440Z,5.40
2023-03-08T19:26:38.604Z,5.50
2023-03-08T19:29:09.714Z,5.60
2023-03-08T19:31:41.229Z,5.40
2023-03-08T19:34:10.401Z,5.50
2023-03-08T19:36:39.813Z,5.70
2023-03-08T19:39:10.612Z,5.70
2023-03-08T19:41:38.575Z,5.60
2023-03-08T19:44:07.343Z,5.60
2023-03-08T19:46:35.732Z,5.60
2023-03-08T19:49:14.031Z,5.60
2023-03-08T19:51:46.940Z,5.70
2023-03-08T19:54:15.709Z,5.60
2023-03-08T19:56:43.806Z,5.40
2023-03-08T19:59:12.451Z,5.40
2023-03-08T20:01:41.002Z,5.30
2023-03-08T20:04:12.233Z,5.30
2023-03-08T20:06:45.954Z,5.30
2023-03-08T20:09:18.369Z,5.30
2023-03-08T20:11:46.519Z,5.40
2023-03-08T20:14:15.020Z,5.30
2023-03-08T20:16:43.470Z,5.30
2023-03-08T20:19:13.917Z,5.50
2023-03-08T20:21:42.129Z,5.40
2023-03-08T20:24:10.391Z,5.50
2023-03-08T20:26:39.181Z,5.60
2023-03-08T20:29:41.653Z,5.50
2023-03-08T20:32:06.108Z,5.50
2023-03-08T20:34:47.548Z,5.50
2023-03-08T20:37:15.640Z,5.40
2023-03-08T20:39:56.071Z,5.30
2023-03-08T20:42:24.295Z,5.30
2023-03-08T20:45:07.447Z,5.40
2023-03-08T20:47:35.918Z,5.50
2023-03-08T20:50:05.662Z,5.70
2023-03-08T20:52:33.580Z,5.70
2023-03-08T20:55:01.486Z,5.70
2023-03-08T20:57:30.273Z,5.70
2023-03-08T20:59:58.370Z,5.70
2023-03-08T21:02:26.262Z,5.70
2023-03-08T21:04:54.555Z,5.60
2023-03-08T21:07:24.181Z,5.70
2023-03-08T21:09:52.234Z,5.70
2023-03-08T21:12:20.164Z,5.60
2023-03-08T21:14:56.502Z,5.60
2023-03-08T21:17:44.681Z,5.60
2023-03-08T21:20:25.182Z,5.50
2023-03-08T21:22:54.497Z,5.50
2023-03-08T21:25:30.978Z,5.40
2023-03-08T21:27:59.004Z,5.40
2023-03-08T21:30:28.322Z,5.40
2023-03-08T21:32:56.283Z,5.30
2023-03-08T21:35:24.162Z,5.40
2023-03-08T21:37:52.419Z,5.50
2023-03-08T21:40:21.977Z,5.50
2023-03-08T21:42:49.926Z,5.50
2023-03-08T21:45:17.939Z,5.50
2023-03-08T21:47:45.931Z,5.50
2023-03-08T21:50:32.287Z,5.40
2023-03-08T21:53:27.557Z,5.40
2023-03-08T21:56:24.491Z,5.40
2023-03-08T21:59:32.076Z,5.40
2023-03-08T22:02:22.436Z,5.40
2023-03-08T22:05:01.987Z,5.40
2023-03-08T22:07:44.558Z,5.30
2023-03-08T22:10:34.420Z,5.30
2023-03-08T22:13:04.120Z,5.50
2023-03-08T22:16:03.707Z,5.40
2023-03-08T22:21:40.427Z,5.50
2023-03-08T22:24:18.827Z,5.50
2023-03-08T22:30:37.906Z,5.50
2023-03-08T22:33:25.730Z,5.30
2023-03-08T22:36:02.545Z,5.30
2023-03-08T22:38:40.137Z,5.00
2023-03-08T22:44:43.501Z,5.30
2023-03-08T22:47:27.479Z,5.20
2023-03-08T22:53:13.349Z,5.10
2023-03-08T22:55:47.542Z,5.30
2023-03-08T22:58:27.298Z,5.20
2023-03-08T23:01:25.068Z,5.20
2023-03-08T23:04:26.852Z,5.20
2023-03-08T23:06:54.825Z,5.40
2023-03-08T23:09:23.212Z,5.50
2023-03-08T23:11:51.301Z,5.20
2023-03-08T23:14:19.193Z,5.50
2023-03-08T23:16:47.655Z,5.40
2023-03-08T23:19:19.385Z,5.50
2023-03-08T23:21:47.612Z,5.30
2023-03-08T23:24:16.164Z,5.20
2023-03-08T23:26:45.912Z,5.30
2023-03-08T23:29:15.389Z,5.40
2023-03-08T23:31:45.558Z,5.50
2023-03-08T23:34:13.481Z,5.50
2023-03-08T23:36:42.818Z,5.60
2023-03-08T23:39:11.472Z,5.60
2023-03-08T23:41:40.433Z,5.50
2023-03-08T23:44:08.676Z,5.50
2023-03-08T23:46:36.579Z,5.50
2023-03-08T23:49:04.809Z,5.60
2023-03-08T23:51:34.090Z,5.60
2023-03-08T23:54:04.338Z,5.60
2023-03-08T23:56:37.897Z,5.50
2023-03-08T23:59:08.683Z,5.70
